Time;durP1;ratioP1;P1;durP2;ratioP2;P2;SDS_P1;SDS_P2;PMS_P1;PMS_P2;Temp;Humidity;BMP_temperature;BMP_pressure;BME280_temperature;BME280_humidity;BME280_pressure;Samples;Min_cycle;Max_cycle;Signal;HPM_P1;HPM_P2
2021/01/11 00:01:46;;;;;;;8.52;7.50;;;;;;;;;;5068240;28;20412;-49
2021/01/11 00:04:12;;;;;;;8.32;7.45;;;;;;;;;;5073821;28;20170;-49
2021/01/11 00:06:39;;;;;;;9.60;8.20;;;;;;;;;;5074034;28;20178;-48
2021/01/11 00:09:05;;;;;;;8.10;7.30;;;;;;;;;;5067412;28;20254;-49
2021/01/11 00:11:32;;;;;;;8.18;7.32;;;;;;;;;;5064308;28;20194;-49
2021/01/11 00:13:59;;;;;;;8.27;7.47;;;;;;;;;;5064685;28;20497;-48
2021/01/11 00:16:25;;;;;;;9.20;7.82;;;;;;;;;;5073393;28;20189;-48
2021/01/11 00:18:51;;;;;;;8.35;7.55;;;;;;;;;;5063108;28;20477;-48
2021/01/11 00:21:17;;;;;;;8.68;7.78;;;;;;;;;;5073945;28;20187;-49
2021/01/11 00:23:43;;;;;;;8.25;7.45;;;;;;;;;;5074106;28;20177;-48
2021/01/11 00:26:10;;;;;;;8.35;7.47;;;;;;;;;;5070226;28;20285;-49
2021/01/11 00:28:36;;;;;;;8.73;7.00;;;;;;;;;;5058536;28;20570;-47
2021/01/11 00:31:02;;;;;;;10.82;7.53;;;;;;;;;;5066390;28;20190;-48
2021/01/11 00:33:28;;;;;;;8.20;7.10;;;;;;;;;;5054180;28;20175;-48
2021/01/11 00:35:54;;;;;;;7.97;7.15;;;;;;;;;;5054157;28;20175;-49
2021/01/11 00:38:20;;;;;;;7.72;6.90;;;;;;;;;;5054051;28;20183;-49
2021/01/11 00:40:46;;;;;;;7.68;6.97;;;;;;;;;;5058987;28;20529;-48
2021/01/11 00:43:13;;;;;;;7.68;6.88;;;;;;;;;;5067710;28;20274;-49
2021/01/11 00:45:39;;;;;;;8.40;7.30;;;;;;;;;;5056190;28;20270;-48
2021/01/11 00:48:05;;;;;;;8.20;7.40;;;;;;;;;;5066605;28;20239;-49
2021/01/11 00:50:31;;;;;;;7.70;6.80;;;;;;;;;;5073746;28;20181;-49
2021/01/11 00:52:57;;;;;;;7.35;6.60;;;;;;;;;;5072500;28;20175;-48
2021/01/11 00:55:23;;;;;;;8.50;6.78;;;;;;;;;;5073000;28;20194;-48
2021/01/11 00:57:49;;;;;;;8.40;7.60;;;;;;;;;;5073969;28;20171;-48
2021/01/11 01:00:16;;;;;;;8.02;7.22;;;;;;;;;;5063411;28;20290;-48
2021/01/11 01:02:42;;;;;;;7.45;6.55;;;;;;;;;;5073622;28;20435;-49
2021/01/11 01:05:10;;;;;;;7.20;6.50;;;;;;;;;;5077267;28;20171;-47
2021/01/11 01:07:37;;;;;;;8.02;6.78;;;;;;;;;;5077164;28;20257;-48
2021/01/11 01:10:04;;;;;;;7.07;6.38;;;;;;;;;;5077479;28;20198;-49
2021/01/11 01:12:30;;;;;;;7.82;6.88;;;;;;;;;;5072628;28;20253;-48
2021/01/11 01:14:56;;;;;;;6.75;6.10;;;;;;;;;;5075396;28;20174;-48
2021/01/11 01:17:22;;;;;;;6.90;6.13;;;;;;;;;;5069611;28;20441;-49
2021/01/11 01:19:48;;;;;;;6.82;6.13;;;;;;;;;;5072166;28;20265;-48
2021/01/11 01:22:14;;;;;;;7.00;6.30;;;;;;;;;;5070887;28;20190;-49
2021/01/11 01:24:40;;;;;;;6.53;5.82;;;;;;;;;;5056464;28;20163;-48
2021/01/11 01:27:06;;;;;;;6.70;6.00;;;;;;;;;;5057720;28;20520;-49
2021/01/11 01:29:32;;;;;;;6.90;6.20;;;;;;;;;;5057108;28;20171;-49
2021/01/11 01:31:59;;;;;;;6.97;6.28;;;;;;;;;;5064688;28;20265;-49
2021/01/11 01:34:25;;;;;;;6.75;6.13;;;;;;;;;;5076472;28;20475;-49
2021/01/11 01:36:51;;;;;;;6.55;5.88;;;;;;;;;;5076630;28;20250;-49
2021/01/11 01:39:17;;;;;;;6.32;5.78;;;;;;;;;;5077024;28;20183;-48
2021/01/11 01:41:45;;;;;;;6.45;5.85;;;;;;;;;;5076186;28;20462;-49
2021/01/11 01:44:11;;;;;;;7.05;6.35;;;;;;;;;;5075440;28;20175;-48
2021/01/11 01:46:38;;;;;;;6.57;5.93;;;;;;;;;;5076388;28;20194;-49
2021/01/11 01:49:05;;;;;;;6.10;5.50;;;;;;;;;;5077333;28;20249;-49
2021/01/11 01:51:31;;;;;;;6.32;5.78;;;;;;;;;;5070865;28;20182;-48
2021/01/11 01:53:57;;;;;;;6.70;6.00;;;;;;;;;;5060541;28;20179;-49
2021/01/11 01:56:25;;;;;;;5.93;5.20;;;;;;;;;;5076451;28;20178;-48
2021/01/11 01:58:51;;;;;;;6.03;5.43;;;;;;;;;;5076783;28;20166;-48
2021/01/11 02:01:16;;;;;;;6.28;5.68;;;;;;;;;;5076296;28;20248;-49
2021/01/11 02:03:42;;;;;;;6.30;5.70;;;;;;;;;;5069031;28;20236;-49
2021/01/11 02:06:08;;;;;;;6.15;5.55;;;;;;;;;;5073883;28;20179;-49
2021/01/11 02:08:37;;;;;;;6.43;5.80;;;;;;;;;;5072438;28;20178;-49
2021/01/11 02:11:06;;;;;;;6.30;5.70;;;;;;;;;;5076125;28;20170;-48
2021/01/11 02:13:32;;;;;;;6.20;5.60;;;;;;;;;;5076371;28;20261;-48
2021/01/11 02:16:21;;;;;;;6.18;5.57;;;;;;;;;;5063052;28;20210;-49
2021/01/11 02:19:01;;;;;;;5.55;5.03;;;;;;;;;;5074243;28;20506;-49
2021/01/11 02:21:35;;;;;;;5.82;5.32;;;;;;;;;;5065152;28;20508;-49
2021/01/11 02:24:20;;;;;;;5.90;5.40;;;;;;;;;;5074171;28;20264;-51
2021/01/11 02:26:55;;;;;;;6.10;5.50;;;;;;;;;;5057816;28;20214;-48
2021/01/11 02:29:34;;;;;;;5.97;5.43;;;;;;;;;;5076084;28;20256;-48
2021/01/11 02:32:00;;;;;;;6.18;5.57;;;;;;;;;;5075839;28;20588;-49
2021/01/11 02:34:27;;;;;;;5.65;5.15;;;;;;;;;;5074779;28;20228;-48
2021/01/11 02:36:53;;;;;;;5.40;4.90;;;;;;;;;;5074377;28;20183;-49
2021/01/11 02:39:19;;;;;;;5.72;5.22;;;;;;;;;;5075545;28;20195;-49
2021/01/11 02:41:45;;;;;;;5.57;5.07;;;;;;;;;;5075252;28;20289;-49
2021/01/11 02:44:11;;;;;;;5.30;4.80;;;;;;;;;;5074471;28;20602;-48
2021/01/11 02:46:37;;;;;;;5.20;4.70;;;;;;;;;;5075692;28;20249;-49
2021/01/11 02:49:20;;;;;;;5.57;5.07;;;;;;;;;;5080513;28;20261;-48
2021/01/11 02:51:57;;;;;;;6.25;5.03;;;;;;;;;;5065639;28;20187;-49
2021/01/11 02:54:32;;;;;;;5.57;4.78;;;;;;;;;;5059845;28;20177;-49
2021/01/11 02:57:08;;;;;;;5.13;4.63;;;;;;;;;;5075142;28;20471;-49
2021/01/11 02:59:40;;;;;;;4.80;4.40;;;;;;;;;;5075534;28;20621;-49
2021/01/11 03:02:08;;;;;;;5.32;4.82;;;;;;;;;;5074872;28;20213;-48
2021/01/11 03:04:34;;;;;;;5.13;4.63;;;;;;;;;;5070958;28;20186;-49
2021/01/11 03:07:01;;;;;;;4.97;4.47;;;;;;;;;;5072456;28;20707;-48
2021/01/11 03:09:30;;;;;;;4.75;4.35;;;;;;;;;;5075273;28;20166;-48
2021/01/11 03:11:57;;;;;;;4.50;4.10;;;;;;;;;;5075074;28;20672;-49
2021/01/11 03:14:23;;;;;;;5.30;4.80;;;;;;;;;;5074103;28;20214;-49
2021/01/11 03:16:50;;;;;;;5.07;4.57;;;;;;;;;;5074865;28;20261;-49
2021/01/11 03:19:16;;;;;;;4.60;4.20;;;;;;;;;;5072636;28;20182;-48
2021/01/11 03:21:42;;;;;;;4.82;4.32;;;;;;;;;;5072108;28;20233;-49
2021/01/11 03:24:08;;;;;;;5.60;4.70;;;;;;;;;;5068323;28;20523;-49
2021/01/11 03:26:35;;;;;;;4.68;4.18;;;;;;;;;;5067347;28;20255;-48
2021/01/11 03:29:01;;;;;;;4.85;4.45;;;;;;;;;;5074637;28;20486;-48
2021/01/11 03:31:27;;;;;;;5.13;4.68;;;;;;;;;;5071434;28;20179;-49
2021/01/11 03:33:53;;;;;;;4.20;3.80;;;;;;;;;;5057385;28;20201;-48
2021/01/11 03:36:19;;;;;;;4.40;4.00;;;;;;;;;;5074288;28;20183;-49
2021/01/11 03:38:46;;;;;;;4.63;4.22;;;;;;;;;;5074527;28;20194;-49
2021/01/11 03:41:12;;;;;;;4.50;4.10;;;;;;;;;;5074713;28;20588;-47
2021/01/11 03:43:42;;;;;;;5.00;4.50;;;;;;;;;;5073851;28;20225;-49
2021/01/11 03:46:09;;;;;;;4.88;4.47;;;;;;;;;;5069970;28;20185;-48
2021/01/11 03:48:35;;;;;;;4.38;3.97;;;;;;;;;;5073729;28;20178;-49
2021/01/11 03:51:01;;;;;;;4.47;4.07;;;;;;;;;;5054239;28;20179;-49
2021/01/11 03:53:27;;;;;;;4.68;4.28;;;;;;;;;;5054519;28;20219;-49
2021/01/11 03:55:53;;;;;;;4.40;4.03;;;;;;;;;;5072730;28;20186;-49
2021/01/11 03:58:20;;;;;;;4.43;4.03;;;;;;;;;;5073656;28;20455;-49
2021/01/11 04:00:48;;;;;;;4.28;3.88;;;;;;;;;;5072434;28;20202;-48
2021/01/11 04:03:14;;;;;;;4.07;3.75;;;;;;;;;;5074762;28;20171;-48
2021/01/11 04:05:47;;;;;;;4.07;3.75;;;;;;;;;;5068570;28;20596;-49
2021/01/11 04:08:13;;;;;;;4.18;3.78;;;;;;;;;;5073662;28;20209;-49
2021/01/11 04:10:39;;;;;;;3.95;3.63;;;;;;;;;;5073954;28;20190;-48
2021/01/11 04:13:05;;;;;;;3.80;3.50;;;;;;;;;;5061049;28;20570;-48
2021/01/11 04:15:32;;;;;;;4.25;3.85;;;;;;;;;;5063210;28;20194;-49
2021/01/11 04:17:58;;;;;;;3.95;3.60;;;;;;;;;;5074197;28;20175;-48
2021/01/11 04:20:24;;;;;;;3.83;3.50;;;;;;;;;;5074139;28;20285;-48
2021/01/11 04:22:50;;;;;;;3.75;3.45;;;;;;;;;;5074742;28;20185;-48
2021/01/11 04:25:16;;;;;;;3.70;3.40;;;;;;;;;;5072503;28;20425;-48
2021/01/11 04:27:42;;;;;;;3.58;3.28;;;;;;;;;;5073715;28;20565;-48
2021/01/11 04:30:09;;;;;;;4.05;3.65;;;;;;;;;;5074671;28;20186;-49
2021/01/11 04:32:35;;;;;;;3.35;3.05;;;;;;;;;;5074257;28;20549;-47
2021/01/11 04:35:02;;;;;;;3.60;3.30;;;;;;;;;;5069444;28;20174;-48
2021/01/11 04:37:28;;;;;;;4.32;3.92;;;;;;;;;;5078167;28;20178;-48
2021/01/11 04:39:55;;;;;;;4.10;3.70;;;;;;;;;;5066490;28;20266;-48
2021/01/11 04:42:23;;;;;;;3.83;3.53;;;;;;;;;;5074173;28;20261;-48
2021/01/11 04:44:50;;;;;;;4.20;3.80;;;;;;;;;;5075806;28;20175;-48
2021/01/11 04:47:16;;;;;;;4.30;3.60;;;;;;;;;;5079162;28;20174;-49
2021/01/11 04:49:42;;;;;;;3.58;3.28;;;;;;;;;;5081114;28;20205;-49
2021/01/11 04:52:08;;;;;;;3.95;3.63;;;;;;;;;;5076158;28;20197;-48
2021/01/11 04:54:37;;;;;;;4.22;3.35;;;;;;;;;;5070454;28;20186;-49
2021/01/11 04:57:03;;;;;;;3.42;3.13;;;;;;;;;;5077953;28;20198;-48
2021/01/11 04:59:33;;;;;;;3.60;3.30;;;;;;;;;;5077872;28;20167;-49
2021/01/11 05:02:00;;;;;;;3.53;3.22;;;;;;;;;;5077263;28;20609;-48
2021/01/11 05:04:26;;;;;;;3.40;3.10;;;;;;;;;;5072378;28;20175;-48
2021/01/11 05:06:52;;;;;;;3.63;3.33;;;;;;;;;;5073933;28;20178;-48
2021/01/11 05:09:18;;;;;;;3.50;3.20;;;;;;;;;;5062417;28;20207;-49
2021/01/11 05:11:45;;;;;;;3.35;3.05;;;;;;;;;;5057614;28;20195;-49
2021/01/11 05:14:17;;;;;;;3.25;3.00;;;;;;;;;;5059471;28;20214;-49
2021/01/11 05:16:58;;;;;;;3.67;3.38;;;;;;;;;;5077478;28;20178;-48
2021/01/11 05:19:24;;;;;;;3.72;3.35;;;;;;;;;;5076207;28;20176;-48
2021/01/11 05:21:52;;;;;;;3.22;3.00;;;;;;;;;;5076845;28;20208;-47
2021/01/11 05:24:28;;;;;;;3.58;3.28;;;;;;;;;;5070871;28;20167;-48
2021/01/11 05:26:54;;;;;;;3.28;2.97;;;;;;;;;;5056936;28;20171;-49
2021/01/11 05:29:20;;;;;;;3.72;2.95;;;;;;;;;;5057312;28;20178;-49
2021/01/11 05:31:59;;;;;;;5.18;3.20;;;;;;;;;;5066371;28;20178;-48
2021/01/11 05:34:44;;;;;;;4.10;3.47;;;;;;;;;;5068129;28;20178;-48
2021/01/11 05:37:10;;;;;;;4.70;3.17;;;;;;;;;;5057284;28;20225;-49
2021/01/11 05:39:36;;;;;;;4.85;3.53;;;;;;;;;;5056570;28;20192;-48
2021/01/11 05:42:02;;;;;;;5.25;3.33;;;;;;;;;;5068653;28;20380;-49
2021/01/11 05:44:28;;;;;;;3.70;3.22;;;;;;;;;;5075492;28;20469;-48
2021/01/11 05:47:01;;;;;;;4.13;3.63;;;;;;;;;;5067289;28;20229;-48
2021/01/11 05:49:28;;;;;;;6.13;3.47;;;;;;;;;;5081112;28;20201;-48
2021/01/11 05:51:54;;;;;;;3.22;2.92;;;;;;;;;;5076064;28;20476;-48
2021/01/11 05:54:26;;;;;;;4.70;3.70;;;;;;;;;;5070079;28;20194;-47
2021/01/11 05:56:56;;;;;;;4.18;3.03;;;;;;;;;;5056668;28;20202;-48
2021/01/11 05:59:22;;;;;;;5.70;3.40;;;;;;;;;;5056987;28;20194;-49
2021/01/11 06:01:48;;;;;;;5.55;3.47;;;;;;;;;;5076295;28;20300;-48
2021/01/11 06:04:14;;;;;;;3.75;3.38;;;;;;;;;;5075102;28;20507;-50
2021/01/11 06:06:41;;;;;;;4.40;3.28;;;;;;;;;;5059653;28;20190;-48
2021/01/11 06:09:08;;;;;;;6.50;3.50;;;;;;;;;;5055752;28;20178;-49
2021/01/11 06:11:35;;;;;;;4.07;3.45;;;;;;;;;;5062722;28;20179;-49
2021/01/11 06:14:02;;;;;;;4.97;3.35;;;;;;;;;;5071829;28;20171;-48
2021/01/11 06:16:28;;;;;;;3.92;3.10;;;;;;;;;;5055469;28;20176;-49
2021/01/11 06:18:54;;;;;;;5.43;3.50;;;;;;;;;;5065463;28;20174;-48
2021/01/11 06:21:21;;;;;;;3.90;2.80;;;;;;;;;;5075504;28;20233;-49
2021/01/11 06:23:47;;;;;;;5.65;3.40;;;;;;;;;;5072524;28;20182;-48
2021/01/11 06:26:28;;;;;;;4.18;3.22;;;;;;;;;;5056864;28;20229;-47
2021/01/11 06:28:54;;;;;;;4.15;2.97;;;;;;;;;;5076226;28;20174;-49
2021/01/11 06:31:26;;;;;;;5.50;3.42;;;;;;;;;;5075671;28;20877;-49
2021/01/11 06:33:52;;;;;;;3.22;2.92;;;;;;;;;;5076061;28;20173;-49
2021/01/11 06:36:19;;;;;;;3.50;3.20;;;;;;;;;;5067492;28;20186;-48
2021/01/11 06:38:47;;;;;;;3.97;3.53;;;;;;;;;;5075571;28;20190;-49
2021/01/11 06:41:14;;;;;;;5.07;3.05;;;;;;;;;;5068548;28;20218;-48
2021/01/11 06:43:47;;;;;;;5.00;3.28;;;;;;;;;;5067798;28;20182;-48
2021/01/11 06:46:28;;;;;;;4.32;3.22;;;;;;;;;;5071116;28;20876;-48
2021/01/11 06:48:58;;;;;;;4.00;3.20;;;;;;;;;;5080761;28;20183;-48
2021/01/11 06:51:30;;;;;;;3.67;3.22;;;;;;;;;;5075260;28;20290;-49
2021/01/11 06:54:09;;;;;;;3.78;3.30;;;;;;;;;;5068921;28;20171;-47
2021/01/11 06:56:37;;;;;;;3.33;3.03;;;;;;;;;;5064576;28;20197;-48
2021/01/11 06:59:11;;;;;;;3.17;2.88;;;;;;;;;;5073853;28;20177;-48
2021/01/11 07:01:38;;;;;;;5.53;3.50;;;;;;;;;;5074903;28;20205;-47
2021/01/11 07:04:05;;;;;;;5.60;3.30;;;;;;;;;;5073424;28;20186;-48
2021/01/11 07:06:33;;;;;;;3.67;3.35;;;;;;;;;;5074044;28;20558;-48
2021/01/11 07:09:19;;;;;;;3.50;3.20;;;;;;;;;;5054254;28;20182;-48
2021/01/11 07:11:45;;;;;;;4.43;3.05;;;;;;;;;;5054589;28;20167;-49
2021/01/11 07:14:12;;;;;;;3.58;3.17;;;;;;;;;;5054673;28;20203;-49
2021/01/11 07:16:39;;;;;;;3.88;3.05;;;;;;;;;;5054981;28;20175;-48
2021/01/11 07:19:05;;;;;;;3.40;3.08;;;;;;;;;;5071188;28;20546;-50
2021/01/11 07:21:31;;;;;;;3.47;3.10;;;;;;;;;;5067879;28;20300;-48
2021/01/11 07:23:59;;;;;;;4.20;3.17;;;;;;;;;;5065457;28;20178;-48
2021/01/11 07:26:26;;;;;;;3.97;3.47;;;;;;;;;;5072190;28;20301;-49
2021/01/11 07:29:02;;;;;;;3.33;3.03;;;;;;;;;;5073099;28;20224;-48
2021/01/11 07:31:33;;;;;;;3.53;3.20;;;;;;;;;;5068390;28;20179;-49
2021/01/11 07:34:03;;;;;;;5.82;3.25;;;;;;;;;;5057010;28;20183;-48
2021/01/11 07:36:32;;;;;;;3.53;3.22;;;;;;;;;;5057913;28;20194;-48
2021/01/11 07:39:27;;;;;;;3.35;2.97;;;;;;;;;;5069593;28;20269;-47
2021/01/11 07:42:00;;;;;;;4.25;3.17;;;;;;;;;;5058919;28;20233;-48
2021/01/11 07:44:31;;;;;;;4.43;3.40;;;;;;;;;;5063484;28;20264;-49
2021/01/11 07:46:59;;;;;;;3.22;2.88;;;;;;;;;;5074005;28;20518;-49
2021/01/11 07:49:26;;;;;;;3.58;3.28;;;;;;;;;;5067979;28;20175;-49
2021/01/11 07:51:52;;;;;;;4.13;3.22;;;;;;;;;;5054118;28;20210;-49
2021/01/11 07:54:22;;;;;;;4.93;3.38;;;;;;;;;;5060493;28;20253;-49
2021/01/11 07:56:49;;;;;;;3.20;2.90;;;;;;;;;;5069392;28;20583;-48
2021/01/11 07:59:15;;;;;;;3.05;2.75;;;;;;;;;;5055782;28;20187;-48
2021/01/11 08:01:43;;;;;;;3.47;2.90;;;;;;;;;;5064884;28;20221;-49
2021/01/11 08:04:10;;;;;;;3.40;3.10;;;;;;;;;;5062958;28;20185;-48
2021/01/11 08:06:52;;;;;;;3.85;3.40;;;;;;;;;;5071963;28;20172;-49
2021/01/11 08:09:20;;;;;;;3.97;2.78;;;;;;;;;;5063354;28;20246;-49
2021/01/11 08:11:46;;;;;;;3.30;3.00;;;;;;;;;;5069597;28;20178;-49
2021/01/11 08:14:12;;;;;;;3.63;3.15;;;;;;;;;;5067920;28;20216;-48
2021/01/11 08:16:40;;;;;;;3.33;2.80;;;;;;;;;;5061757;28;20585;-49
2021/01/11 08:19:06;;;;;;;4.53;3.15;;;;;;;;;;5072616;28;20183;-49
2021/01/11 08:21:32;;;;;;;2.95;2.75;;;;;;;;;;5077760;28;20631;-49
2021/01/11 08:24:03;;;;;;;3.30;3.00;;;;;;;;;;5072873;28;20185;-48
2021/01/11 08:26:29;;;;;;;3.30;3.00;;;;;;;;;;5072213;28;20189;-48
2021/01/11 08:28:57;;;;;;;3.60;2.70;;;;;;;;;;5066279;28;20289;-49
2021/01/11 08:31:23;;;;;;;3.33;3.03;;;;;;;;;;5073742;28;20205;-48
2021/01/11 08:33:49;;;;;;;3.78;3.15;;;;;;;;;;5068004;28;20184;-49
2021/01/11 08:36:16;;;;;;;3.25;2.92;;;;;;;;;;5069782;28;20182;-48
2021/01/11 08:39:01;;;;;;;2.95;2.75;;;;;;;;;;5064901;28;20198;-48
2021/01/11 08:41:28;;;;;;;3.10;2.88;;;;;;;;;;5069985;28;20203;-49
2021/01/11 08:43:54;;;;;;;3.38;2.85;;;;;;;;;;5076412;28;20185;-50
2021/01/11 08:46:20;;;;;;;3.38;2.92;;;;;;;;;;5075185;28;20182;-49
2021/01/11 08:48:46;;;;;;;3.15;2.85;;;;;;;;;;5079185;28;20471;-49
2021/01/11 08:51:24;;;;;;;2.90;2.70;;;;;;;;;;5058008;28;20230;-48
2021/01/11 08:53:50;;;;;;;2.58;2.35;;;;;;;;;;5064377;28;20231;-48
2021/01/11 08:56:27;;;;;;;3.40;3.10;;;;;;;;;;5071861;28;20198;-49
2021/01/11 08:58:54;;;;;;;4.40;2.90;;;;;;;;;;5067819;28;20659;-48
2021/01/11 09:01:26;;;;;;;4.80;3.10;;;;;;;;;;5074668;28;20668;-49
2021/01/11 09:03:54;;;;;;;3.13;2.83;;;;;;;;;;5066753;28;20551;-49
2021/01/11 09:06:36;;;;;;;2.88;2.67;;;;;;;;;;5070559;28;20175;-48
2021/01/11 09:09:06;;;;;;;3.25;2.95;;;;;;;;;;5062475;28;20205;-48
2021/01/11 09:11:32;;;;;;;2.67;2.47;;;;;;;;;;5070620;28;20189;-48
2021/01/11 09:14:06;;;;;;;4.07;2.88;;;;;;;;;;5057658;28;20187;-48
2021/01/11 09:16:32;;;;;;;3.65;2.80;;;;;;;;;;5057645;28;20505;-49
2021/01/11 09:19:08;;;;;;;3.63;2.55;;;;;;;;;;5063887;28;20178;-48
2021/01/11 09:21:34;;;;;;;5.05;2.42;;;;;;;;;;5070312;28;20202;-49
2021/01/11 09:24:00;;;;;;;2.85;2.53;;;;;;;;;;5076972;28;20173;-48
2021/01/11 09:26:26;;;;;;;4.57;2.38;;;;;;;;;;5077115;28;20172;-49
2021/01/11 09:28:53;;;;;;;2.67;2.47;;;;;;;;;;5077186;28;20170;-48
2021/01/11 09:31:19;;;;;;;2.75;2.55;;;;;;;;;;5075855;28;20171;-48
2021/01/11 09:33:45;;;;;;;3.25;2.70;;;;;;;;;;5074574;28;20178;-47
2021/01/11 09:36:11;;;;;;;5.75;2.88;;;;;;;;;;5066645;28;20179;-48
2021/01/11 09:38:37;;;;;;;4.20;2.70;;;;;;;;;;5076704;28;20190;-48
2021/01/11 09:41:03;;;;;;;4.00;2.60;;;;;;;;;;5076722;28;20197;-49
2021/01/11 09:43:29;;;;;;;3.30;2.70;;;;;;;;;;5075181;28;20179;-48
2021/01/11 09:45:55;;;;;;;3.33;2.60;;;;;;;;;;5083607;28;20182;-48
2021/01/11 09:48:21;;;;;;;3.25;2.22;;;;;;;;;;5075971;28;20206;-49
2021/01/11 09:50:48;;;;;;;3.85;2.65;;;;;;;;;;5076235;28;20650;-48
2021/01/11 09:53:14;;;;;;;2.95;2.40;;;;;;;;;;5075134;28;20469;-48
2021/01/11 09:55:40;;;;;;;6.25;2.78;;;;;;;;;;5076171;28;20174;-48
2021/01/11 09:58:05;;;;;;;4.05;2.58;;;;;;;;;;5076650;28;20324;-48
2021/01/11 10:00:32;;;;;;;9.90;3.70;;;;;;;;;;5076128;28;20558;-48
2021/01/11 10:02:58;;;;;;;6.07;3.33;;;;;;;;;;5075519;28;20166;-48
2021/01/11 10:05:24;;;;;;;5.50;3.17;;;;;;;;;;5073359;28;20227;-49
2021/01/11 10:07:51;;;;;;;4.28;3.03;;;;;;;;;;5076268;28;20181;-49
2021/01/11 10:10:18;;;;;;;5.32;2.90;;;;;;;;;;5056459;28;20561;-48
2021/01/11 10:12:44;;;;;;;4.53;3.22;;;;;;;;;;5063296;28;20174;-49
2021/01/11 10:15:10;;;;;;;4.97;3.13;;;;;;;;;;5075433;28;20515;-48
2021/01/11 10:17:39;;;;;;;5.88;3.33;;;;;;;;;;5075618;28;20253;-48
2021/01/11 10:20:07;;;;;;;4.15;2.78;;;;;;;;;;5075122;28;20555;-48
2021/01/11 10:22:33;;;;;;;5.65;2.92;;;;;;;;;;5066400;28;20175;-49
2021/01/11 10:25:00;;;;;;;4.30;3.25;;;;;;;;;;5075201;28;20486;-49
2021/01/11 10:27:26;;;;;;;3.50;2.60;;;;;;;;;;5074697;28;20174;-49
2021/01/11 10:29:52;;;;;;;6.25;2.85;;;;;;;;;;5070070;28;20177;-49
2021/01/11 10:32:18;;;;;;;5.10;2.75;;;;;;;;;;5071276;28;20787;-48
2021/01/11 10:34:45;;;;;;;4.68;2.80;;;;;;;;;;5075145;28;20613;-49
2021/01/11 10:37:10;;;;;;;2.95;2.38;;;;;;;;;;5073730;28;20182;-49
2021/01/11 10:39:36;;;;;;;4.15;2.53;;;;;;;;;;5075676;28;20581;-49
2021/01/11 10:42:03;;;;;;;2.97;2.67;;;;;;;;;;5074561;28;20225;-48
2021/01/11 10:44:29;;;;;;;3.50;2.90;;;;;;;;;;5074236;28;20570;-48
2021/01/11 10:46:58;;;;;;;2.60;2.40;;;;;;;;;;5075361;28;20177;-48
2021/01/11 10:49:24;;;;;;;2.63;2.42;;;;;;;;;;5074883;28;20202;-48
2021/01/11 10:51:50;;;;;;;4.95;2.38;;;;;;;;;;5075156;28;20224;-47
2021/01/11 10:54:17;;;;;;;2.80;2.60;;;;;;;;;;5060950;28;20529;-49
2021/01/11 10:56:43;;;;;;;3.45;2.70;;;;;;;;;;5053851;28;20250;-48
2021/01/11 10:59:09;;;;;;;4.25;2.78;;;;;;;;;;5055330;28;20250;-48
2021/01/11 11:01:35;;;;;;;3.38;2.50;;;;;;;;;;5055346;28;20556;-49
2021/01/11 11:04:01;;;;;;;3.72;2.60;;;;;;;;;;5055039;28;20168;-48
2021/01/11 11:06:27;;;;;;;2.67;2.47;;;;;;;;;;5054903;28;20281;-50
2021/01/11 11:08:53;;;;;;;3.38;2.60;;;;;;;;;;5056613;28;20170;-48
2021/01/11 11:11:20;;;;;;;3.72;2.45;;;;;;;;;;5067835;28;20531;-49
2021/01/11 11:13:46;;;;;;;2.60;2.38;;;;;;;;;;5074863;28;20178;-49
2021/01/11 11:16:12;;;;;;;5.90;2.63;;;;;;;;;;5074042;28;20255;-49
2021/01/11 11:18:38;;;;;;;2.70;2.20;;;;;;;;;;5070757;28;20183;-49
2021/01/11 11:21:05;;;;;;;3.80;2.78;;;;;;;;;;5072920;28;20197;-48
2021/01/11 11:23:31;;;;;;;2.90;2.60;;;;;;;;;;5073340;28;20561;-49
2021/01/11 11:25:57;;;;;;;2.75;2.50;;;;;;;;;;5055591;28;20182;-49
2021/01/11 11:28:23;;;;;;;2.45;2.25;;;;;;;;;;5068649;28;20231;-48
2021/01/11 11:30:49;;;;;;;2.85;2.42;;;;;;;;;;5073775;28;20187;-49
2021/01/11 11:33:15;;;;;;;3.75;2.38;;;;;;;;;;5074157;28;20196;-49
2021/01/11 11:35:42;;;;;;;3.15;2.53;;;;;;;;;;5073936;28;20174;-47
2021/01/11 11:38:09;;;;;;;2.35;2.15;;;;;;;;;;5072870;28;20170;-48
2021/01/11 11:40:35;;;;;;;2.50;2.30;;;;;;;;;;5073217;28;20316;-48
2021/01/11 11:43:02;;;;;;;2.65;2.22;;;;;;;;;;5067644;28;20178;-50
2021/01/11 11:45:28;;;;;;;2.63;2.40;;;;;;;;;;5068552;28;20530;-48
2021/01/11 11:47:54;;;;;;;3.08;2.35;;;;;;;;;;5073570;28;20178;-49
2021/01/11 11:50:20;;;;;;;2.30;2.10;;;;;;;;;;5073384;28;20258;-49
2021/01/11 11:52:46;;;;;;;2.47;2.28;;;;;;;;;;5074313;28;20179;-49
2021/01/11 11:55:12;;;;;;;2.78;2.33;;;;;;;;;;5074299;28;20162;-48
2021/01/11 11:57:42;;;;;;;2.50;2.20;;;;;;;;;;5059032;28;20209;-48
2021/01/11 12:00:09;;;;;;;2.75;2.20;;;;;;;;;;5074697;28;20237;-48
2021/01/11 12:02:35;;;;;;;2.33;2.13;;;;;;;;;;5074118;28;20189;-49
2021/01/11 12:05:01;;;;;;;2.53;2.13;;;;;;;;;;5073861;28;20167;-49
2021/01/11 12:07:27;;;;;;;2.45;2.25;;;;;;;;;;5074126;28;20625;-48
2021/01/11 12:09:54;;;;;;;2.65;2.45;;;;;;;;;;5074364;28;20216;-48
2021/01/11 12:12:20;;;;;;;2.03;1.92;;;;;;;;;;5070357;28;20174;-48
2021/01/11 12:14:46;;;;;;;2.70;2.35;;;;;;;;;;5072957;28;20194;-49
2021/01/11 12:17:13;;;;;;;2.28;2.13;;;;;;;;;;5074016;28;20220;-48
2021/01/11 12:19:39;;;;;;;2.97;2.42;;;;;;;;;;5073157;28;20182;-48
2021/01/11 12:22:06;;;;;;;2.35;2.15;;;;;;;;;;5073803;28;20231;-48
2021/01/11 12:24:32;;;;;;;2.60;2.40;;;;;;;;;;5073181;28;20217;-48
2021/01/11 12:26:58;;;;;;;2.38;2.15;;;;;;;;;;5074193;28;20454;-48
2021/01/11 12:29:24;;;;;;;2.10;2.00;;;;;;;;;;5063718;28;20574;-48
2021/01/11 12:31:51;;;;;;;4.07;2.47;;;;;;;;;;5066575;28;20619;-50
2021/01/11 12:34:17;;;;;;;2.50;2.30;;;;;;;;;;5069467;28;20213;-49
2021/01/11 12:36:44;;;;;;;2.28;2.08;;;;;;;;;;5074154;28;20179;-48
2021/01/11 12:39:11;;;;;;;4.70;2.03;;;;;;;;;;5074006;28;20720;-49
2021/01/11 12:41:38;;;;;;;2.25;2.05;;;;;;;;;;5074265;28;20226;-49
2021/01/11 12:44:11;;;;;;;2.63;1.88;;;;;;;;;;5066845;28;20611;-49
2021/01/11 12:46:37;;;;;;;5.85;2.15;;;;;;;;;;5054284;28;20202;-49
2021/01/11 12:49:05;;;;;;;2.55;2.25;;;;;;;;;;5074991;28;20340;-49
2021/01/11 12:51:31;;;;;;;2.63;2.25;;;;;;;;;;5073602;28;20175;-48
2021/01/11 12:53:57;;;;;;;2.95;2.33;;;;;;;;;;5073854;28;20175;-49
2021/01/11 12:56:24;;;;;;;3.53;2.58;;;;;;;;;;5077070;28;20197;-48
2021/01/11 12:58:50;;;;;;;4.22;2.20;;;;;;;;;;5077867;28;20217;-48
2021/01/11 13:01:19;;;;;;;3.88;2.28;;;;;;;;;;5061387;28;20199;-48
2021/01/11 13:03:46;;;;;;;5.53;2.72;;;;;;;;;;5066840;28;20175;-49
2021/01/11 13:06:13;;;;;;;4.53;2.85;;;;;;;;;;5077092;28;20166;-48
2021/01/11 13:08:39;;;;;;;5.70;2.60;;;;;;;;;;5075098;28;20182;-48
2021/01/11 13:11:05;;;;;;;3.38;3.08;;;;;;;;;;5072666;28;20193;-48
2021/01/11 13:13:31;;;;;;;3.05;2.67;;;;;;;;;;5077539;28;20167;-48
2021/01/11 13:15:57;;;;;;;4.93;3.38;;;;;;;;;;5073695;28;20189;-48
2021/01/11 13:18:23;;;;;;;4.25;3.33;;;;;;;;;;5061108;28;20181;-49
2021/01/11 13:20:49;;;;;;;5.00;3.28;;;;;;;;;;5067890;28;20199;-48
2021/01/11 13:23:15;;;;;;;7.10;3.80;;;;;;;;;;5057976;28;20266;-48
2021/01/11 13:25:41;;;;;;;5.03;3.35;;;;;;;;;;5071549;28;20262;-48
2021/01/11 13:28:07;;;;;;;6.45;4.07;;;;;;;;;;5069640;28;20265;-49
2021/01/11 13:30:37;;;;;;;5.90;3.50;;;;;;;;;;5075459;28;20507;-48
2021/01/11 13:33:03;;;;;;;5.88;3.17;;;;;;;;;;5072767;28;20182;-48
2021/01/11 13:35:29;;;;;;;4.68;3.42;;;;;;;;;;5063669;28;20261;-48
2021/01/11 13:37:55;;;;;;;5.30;3.50;;;;;;;;;;5075947;28;20446;-48
2021/01/11 13:40:21;;;;;;;11.95;4.30;;;;;;;;;;5072566;28;20487;-49
2021/01/11 13:42:47;;;;;;;7.13;3.47;;;;;;;;;;5076923;28;20469;-48
2021/01/11 13:45:14;;;;;;;8.57;3.15;;;;;;;;;;5076109;28;20210;-48
2021/01/11 13:47:48;;;;;;;7.15;3.45;;;;;;;;;;5077914;28;20219;-48
2021/01/11 13:50:15;;;;;;;5.57;2.67;;;;;;;;;;5057154;28;20605;-50
2021/01/11 13:52:41;;;;;;;10.88;3.33;;;;;;;;;;5072591;28;20492;-48
2021/01/11 13:55:08;;;;;;;4.47;2.90;;;;;;;;;;5076055;28;20238;-48
2021/01/11 13:57:34;;;;;;;7.85;3.33;;;;;;;;;;5075599;28;20584;-48
2021/01/11 14:00:04;;;;;;;5.30;2.83;;;;;;;;;;5071085;28;20182;-49
2021/01/11 14:02:31;;;;;;;4.68;3.10;;;;;;;;;;5075062;28;20470;-49
2021/01/11 14:04:59;;;;;;;5.78;2.65;;;;;;;;;;5074037;28;20178;-49
2021/01/11 14:07:29;;;;;;;4.15;3.08;;;;;;;;;;5064885;28;20179;-48
2021/01/11 14:09:56;;;;;;;6.43;3.35;;;;;;;;;;5071546;28;20190;-48
2021/01/11 14:12:22;;;;;;;7.57;2.78;;;;;;;;;;5075655;28;20440;-49
2021/01/11 14:14:48;;;;;;;5.18;2.80;;;;;;;;;;5075927;28;20471;-48
2021/01/11 14:17:15;;;;;;;4.47;2.67;;;;;;;;;;5075660;28;20505;-48
2021/01/11 14:19:41;;;;;;;4.20;2.38;;;;;;;;;;5073187;28;20179;-49
2021/01/11 14:22:08;;;;;;;3.47;2.92;;;;;;;;;;5075188;28;20201;-48
2021/01/11 14:24:34;;;;;;;5.13;2.70;;;;;;;;;;5075598;28;20266;-49
2021/01/11 14:27:00;;;;;;;3.90;2.50;;;;;;;;;;5075447;28;20186;-49
2021/01/11 14:29:26;;;;;;;2.70;2.30;;;;;;;;;;5076226;28;20708;-47
2021/01/11 14:31:56;;;;;;;5.13;2.58;;;;;;;;;;5073014;28;20182;-49
2021/01/11 14:34:22;;;;;;;7.63;2.58;;;;;;;;;;5074566;28;20223;-49
2021/01/11 14:36:49;;;;;;;6.38;2.40;;;;;;;;;;5070581;28;20189;-49
2021/01/11 14:39:15;;;;;;;6.38;2.30;;;;;;;;;;5071925;28;20198;-48
2021/01/11 14:41:41;;;;;;;7.45;2.60;;;;;;;;;;5060135;28;20233;-48
2021/01/11 14:44:07;;;;;;;6.25;2.55;;;;;;;;;;5070291;28;20178;-48
2021/01/11 14:46:33;;;;;;;5.97;2.60;;;;;;;;;;5071894;28;20681;-49